Terminal Aerodrome Forecast
Issued by NWS Pueblo, CO

Home | Current Version | Previous Version | Text Only | Print | Product List | Glossary On
Versions: 1 2 3 4 5 6 7 8 9 10 11 12 13 14 15 16 17 18 19 20 21 22 23 24 25 26
000
FTUS45 KPUB 290050 AAC
TAFCOS
TAF AMD
KCOS 290050Z 2901/2924 03015KT P6SM VCTS SCT050CB BKN140
      TEMPO 2901/2905 VRB25G35KT TSRA
     FM290600 11012KT P6SM SCT030 BKN140
     FM291000 13008KT 5SM BR BKN030
     FM291300 14007KT 4SM BR BKN010
     FM291600 14010KT P6SM SCT030
     FM292200 15010G20KT P6SM VCTS SCT060CB BKN120=

USA.gov is the U.S. government's official web portal to all federal, state and local government web resources and services.